createdAt,value
2017-01-21T00:01:05.073Z,0
2017-01-21T00:01:50.168Z,0
2017-01-21T00:02:50.188Z,0
2017-01-21T00:03:50.207Z,0
2017-01-21T00:06:05.151Z,0
2017-01-21T00:06:50.252Z,0
2017-01-21T00:08:05.199Z,0
2017-01-21T00:08:50.288Z,0
2017-01-21T00:10:05.222Z,0
2017-01-21T00:10:50.320Z,0
2017-01-21T00:11:50.333Z,0
2017-01-21T00:12:50.355Z,0
2017-01-21T00:13:50.366Z,0
2017-01-21T00:14:50.384Z,0
2017-01-21T00:15:50.401Z,0
2017-01-21T00:16:50.425Z,0
2017-01-21T00:18:05.349Z,0
2017-01-21T00:18:50.457Z,0
2017-01-21T00:19:50.473Z,0
2017-01-21T00:21:50.498Z,0
2017-01-21T00:24:50.550Z,0
2017-01-21T00:26:05.479Z,0
2017-01-21T00:26:50.577Z,0
2017-01-21T00:27:50.595Z,0
2017-01-21T00:28:50.611Z,0
2017-01-21T00:30:05.546Z,0
2017-01-21T00:30:50.673Z,0
2017-01-21T00:31:50.661Z,0
2017-01-21T00:33:05.593Z,0
2017-01-21T00:34:05.613Z,0
2017-01-21T00:34:50.731Z,0
2017-01-21T00:35:50.732Z,0
2017-01-21T00:37:05.659Z,0
2017-01-21T00:40:50.804Z,0
2017-01-21T00:42:05.739Z,0
2017-01-21T00:42:50.870Z,0
2017-01-21T00:43:50.853Z,0
2017-01-21T00:44:50.869Z,0
2017-01-21T00:45:50.913Z,0
2017-01-21T00:46:50.930Z,0
2017-01-21T00:48:05.835Z,0
2017-01-21T00:48:50.935Z,0
2017-01-21T00:49:50.951Z,0
2017-01-21T00:50:50.969Z,0
2017-01-21T00:51:50.982Z,0
2017-01-21T00:52:50.998Z,0
2017-01-21T00:55:05.947Z,0
2017-01-21T00:55:51.083Z,0
2017-01-21T00:56:51.063Z,0
2017-01-21T00:58:06.002Z,0
2017-01-21T00:58:51.096Z,0
2017-01-21T00:59:51.113Z,0
2017-01-21T01:00:51.130Z,0
2017-01-21T01:01:51.148Z,0
2017-01-21T01:03:06.080Z,0
2017-01-21T01:04:06.095Z,0
2017-01-21T01:04:51.194Z,0
2017-01-21T01:05:51.210Z,0
2017-01-21T01:06:51.225Z,0
2017-01-21T01:07:51.243Z,0
2017-01-21T01:08:51.296Z,0
2017-01-21T01:09:51.280Z,0
2017-01-21T01:10:51.296Z,0
2017-01-21T01:11:51.313Z,0
2017-01-21T01:13:06.244Z,0
2017-01-21T01:13:51.345Z,0
2017-01-21T01:14:51.358Z,0
2017-01-21T01:15:51.372Z,0
2017-01-21T01:17:06.307Z,0
2017-01-21T01:17:51.413Z,0
2017-01-21T01:18:51.422Z,0
2017-01-21T01:19:51.455Z,0
2017-01-21T01:20:51.464Z,0
2017-01-21T01:21:51.484Z,0
2017-01-21T01:23:06.405Z,0
2017-01-21T01:23:51.900Z,0
2017-01-21T01:25:51.540Z,0
2017-01-21T01:26:51.556Z,0
2017-01-21T01:27:51.581Z,0
2017-01-21T01:28:51.584Z,0
2017-01-21T01:29:51.608Z,0
2017-01-21T01:31:06.541Z,0
2017-01-21T01:31:51.636Z,0
2017-01-21T01:33:06.575Z,0
2017-01-21T01:33:51.682Z,0
2017-01-21T01:34:51.682Z,0
2017-01-21T01:35:51.702Z,0
2017-01-21T01:36:51.711Z,0
2017-01-21T01:37:51.733Z,0
2017-01-21T01:39:06.666Z,0
2017-01-21T01:39:51.769Z,0
2017-01-21T01:40:51.805Z,0
2017-01-21T01:41:51.822Z,0
2017-01-21T01:42:51.842Z,0
2017-01-21T01:43:51.834Z,0
2017-01-21T01:45:06.767Z,0
2017-01-21T01:46:06.789Z,0
2017-01-21T01:46:51.876Z,0
2017-01-21T01:47:52.294Z,0
2017-01-21T01:49:06.829Z,0
2017-01-21T01:49:51.972Z,0
2017-01-21T01:51:06.861Z,0
2017-01-21T01:51:51.956Z,0
2017-01-21T01:52:51.974Z,0
2017-01-21T01:53:51.993Z,0
2017-01-21T01:54:52.034Z,0
2017-01-21T01:55:52.031Z,0
2017-01-21T01:56:52.038Z,0
2017-01-21T01:57:52.070Z,0
2017-01-21T01:58:52.108Z,0
2017-01-21T01:59:52.092Z,0
2017-01-21T02:01:07.026Z,0
2017-01-21T02:01:52.123Z,0
2017-01-21T02:02:52.136Z,0
2017-01-21T02:03:52.158Z,0
2017-01-21T02:04:52.191Z,0
2017-01-21T02:05:52.191Z,0
2017-01-21T02:06:52.203Z,0
2017-01-21T02:07:52.223Z,0
2017-01-21T02:08:52.236Z,0
2017-01-21T02:09:52.253Z,0
2017-01-21T02:10:52.276Z,0
2017-01-21T02:11:52.681Z,0
2017-01-21T02:12:52.298Z,0
2017-01-21T02:13:52.318Z,0
2017-01-21T02:14:52.333Z,0
2017-01-21T02:15:52.351Z,0
2017-01-21T02:17:07.283Z,0
2017-01-21T02:17:52.389Z,0
2017-01-21T02:18:52.400Z,0
2017-01-21T02:19:52.416Z,0
2017-01-21T02:20:52.479Z,0
2017-01-21T02:21:52.451Z,0
2017-01-21T02:22:52.464Z,0
2017-01-21T02:24:07.397Z,0
2017-01-21T02:24:52.498Z,0
2017-01-21T02:25:52.514Z,0
2017-01-21T02:27:07.449Z,0
2017-01-21T02:28:07.464Z,0
2017-01-21T02:28:52.561Z,0
2017-01-21T02:29:52.578Z,0
2017-01-21T02:30:52.602Z,0
2017-01-21T02:31:52.608Z,0
2017-01-21T02:33:07.545Z,0
2017-01-21T02:33:52.649Z,0
2017-01-21T02:34:52.663Z,0
2017-01-21T02:35:52.680Z,0
2017-01-21T02:36:52.691Z,0
2017-01-21T02:38:07.629Z,0
2017-01-21T02:39:07.644Z,0
2017-01-21T02:40:07.660Z,0
2017-01-21T02:40:52.761Z,0
2017-01-21T02:41:52.779Z,0
2017-01-21T02:42:52.793Z,0
2017-01-21T02:44:07.724Z,0
2017-01-21T02:44:52.852Z,0
2017-01-21T02:45:52.841Z,0
2017-01-21T02:46:52.854Z,0
2017-01-21T02:48:07.793Z,0
2017-01-21T02:48:52.888Z,0
2017-01-21T02:49:52.908Z,0
2017-01-21T02:50:53.311Z,0
2017-01-21T02:51:52.939Z,0
2017-01-21T02:52:52.957Z,0
2017-01-21T02:53:52.972Z,0
2017-01-21T02:54:52.990Z,0
2017-01-21T02:55:53.005Z,0
2017-01-21T02:56:53.020Z,0
2017-01-21T02:58:07.956Z,0
2017-01-21T02:58:53.056Z,0
2017-01-21T02:59:53.068Z,0
2017-01-21T03:00:53.090Z,0
2017-01-21T03:01:53.101Z,0
2017-01-21T03:03:53.137Z,0
2017-01-21T03:04:53.152Z,0
2017-01-21T03:05:53.182Z,0
2017-01-21T03:06:53.186Z,0
2017-01-21T03:07:53.216Z,0
2017-01-21T03:08:53.216Z,0
2017-01-21T03:10:08.152Z,0
2017-01-21T03:11:08.173Z,0
2017-01-21T03:11:53.264Z,0
2017-01-21T03:12:53.284Z,0
2017-01-21T03:13:53.298Z,0
2017-01-21T03:14:53.313Z,0
2017-01-21T03:16:08.250Z,0
2017-01-21T03:16:53.355Z,0
2017-01-21T03:17:53.365Z,0
2017-01-21T03:18:53.382Z,0
2017-01-21T03:20:23.239Z,0
2017-01-21T03:20:53.416Z,0
2017-01-21T03:21:53.431Z,0
2017-01-21T03:22:53.445Z,0
2017-01-21T03:23:53.463Z,0
2017-01-21T03:25:08.397Z,0
2017-01-21T03:26:08.414Z,0
2017-01-21T03:26:53.513Z,0
2017-01-21T03:27:53.531Z,0
2017-01-21T03:29:08.465Z,0
2017-01-21T03:29:53.559Z,0
2017-01-21T03:31:08.495Z,0
2017-01-21T03:31:53.602Z,0
2017-01-21T03:33:53.626Z,0
2017-01-21T03:34:53.644Z,0
2017-01-21T03:36:08.577Z,0
2017-01-21T03:36:53.673Z,0
2017-01-21T03:37:53.716Z,0
2017-01-21T03:38:53.706Z,0
2017-01-21T03:39:53.726Z,0
2017-01-21T03:40:53.752Z,0
2017-01-21T03:42:08.677Z,0
2017-01-21T03:43:08.695Z,0
2017-01-21T03:44:08.704Z,0
2017-01-21T03:45:08.726Z,0
2017-01-21T03:47:08.756Z,0
2017-01-21T03:47:53.855Z,0
2017-01-21T03:49:08.790Z,0
2017-01-21T03:49:53.885Z,0
2017-01-21T03:50:53.901Z,0
2017-01-21T03:52:08.835Z,0
2017-01-21T03:52:53.938Z,0
2017-01-21T03:53:53.959Z,0
2017-01-21T03:55:53.986Z,0
2017-01-21T03:56:54.007Z,0
2017-01-21T03:57:54.018Z,0
2017-01-21T03:58:54.037Z,0
2017-01-21T03:59:54.050Z,0
2017-01-21T04:00:54.068Z,0
2017-01-21T04:01:54.082Z,0
2017-01-21T04:02:54.133Z,0
2017-01-21T04:03:54.120Z,0
2017-01-21T04:04:54.131Z,0
2017-01-21T04:06:54.167Z,0
2017-01-21T04:08:09.103Z,0
2017-01-21T04:08:54.198Z,0
2017-01-21T04:09:54.216Z,0
2017-01-21T04:10:54.230Z,0
2017-01-21T04:11:54.252Z,0
2017-01-21T04:13:09.180Z,0
2017-01-21T04:13:54.287Z,0
2017-01-21T04:14:54.294Z,0
2017-01-21T04:16:09.226Z,0
2017-01-21T04:16:54.629Z,0
2017-01-21T04:17:54.346Z,0
2017-01-21T04:21:09.310Z,0
2017-01-21T04:23:09.344Z,0
2017-01-21T04:24:09.371Z,0
2017-01-21T04:24:54.457Z,0
2017-01-21T04:26:54.498Z,0
2017-01-21T04:28:09.429Z,0
2017-01-21T04:28:54.526Z,0
2017-01-21T04:30:09.458Z,0
2017-01-21T04:30:54.558Z,0
2017-01-21T04:31:54.571Z,0
2017-01-21T04:32:54.591Z,0
2017-01-21T04:34:09.534Z,0
2017-01-21T04:34:54.623Z,0
2017-01-21T04:35:54.638Z,0
2017-01-21T04:36:54.956Z,0
2017-01-21T04:37:54.669Z,0
2017-01-21T04:38:54.687Z,0
2017-01-21T04:39:54.706Z,0
2017-01-21T04:40:54.722Z,0
2017-01-21T04:41:54.770Z,0
2017-01-21T04:42:54.750Z,0
2017-01-21T04:43:54.767Z,0
2017-01-21T04:44:54.783Z,0
2017-01-21T04:45:54.802Z,0
2017-01-21T04:47:09.739Z,0
2017-01-21T04:47:54.832Z,0
2017-01-21T04:48:54.853Z,0
2017-01-21T04:49:54.872Z,0
2017-01-21T04:51:09.801Z,0
2017-01-21T04:51:54.920Z,0
2017-01-21T04:52:54.916Z,0
2017-01-21T04:53:54.935Z,0
2017-01-21T04:55:09.870Z,0
2017-01-21T04:55:54.964Z,0
2017-01-21T04:56:54.986Z,0
2017-01-21T04:57:55.002Z,0
2017-01-21T04:58:55.037Z,0
2017-01-21T04:59:55.028Z,0
2017-01-21T05:01:09.966Z,0
2017-01-21T05:01:55.063Z,0
2017-01-21T05:03:10.000Z,0
2017-01-21T05:03:55.094Z,0
2017-01-21T05:04:55.111Z,0
2017-01-21T05:05:55.138Z,0
2017-01-21T05:07:10.061Z,0
2017-01-21T05:07:55.160Z,0
2017-01-21T05:09:10.092Z,0
2017-01-21T05:09:55.192Z,0
2017-01-21T05:11:10.125Z,0
2017-01-21T05:11:55.226Z,0
2017-01-21T05:12:55.240Z,0
2017-01-21T05:13:55.261Z,0
2017-01-21T05:15:10.196Z,0
2017-01-21T05:15:55.290Z,0
2017-01-21T05:16:55.347Z,0
2017-01-21T05:17:55.321Z,0
2017-01-21T05:18:55.344Z,0
2017-01-21T05:20:10.273Z,0
2017-01-21T05:21:10.291Z,0
2017-01-21T05:22:10.332Z,0
2017-01-21T05:22:55.407Z,0
2017-01-21T05:24:55.457Z,0
2017-01-21T05:27:10.389Z,0
2017-01-21T05:27:55.488Z,0
2017-01-21T05:28:55.514Z,0
2017-01-21T05:29:55.549Z,0
2017-01-21T05:30:55.536Z,0
2017-01-21T05:31:55.548Z,0
2017-01-21T05:33:10.485Z,0
2017-01-21T05:33:55.584Z,0
2017-01-21T05:35:10.522Z,0
2017-01-21T05:35:55.617Z,0
2017-01-21T05:36:55.635Z,0
2017-01-21T05:37:55.647Z,0
2017-01-21T05:40:10.600Z,0
2017-01-21T05:40:55.702Z,0
2017-01-21T05:43:10.650Z,0
2017-01-21T05:44:55.765Z,0
2017-01-21T05:45:55.782Z,0
2017-01-21T05:46:55.800Z,0
2017-01-21T05:47:55.815Z,0
2017-01-21T05:48:55.832Z,0
2017-01-21T05:49:55.845Z,0
2017-01-21T05:51:10.803Z,0
2017-01-21T05:51:55.884Z,0
2017-01-21T05:52:55.894Z,0
2017-01-21T05:53:55.936Z,0
2017-01-21T05:55:10.846Z,0
2017-01-21T05:55:55.954Z,0
2017-01-21T05:56:55.964Z,0
2017-01-21T05:58:10.900Z,0
2017-01-21T05:59:56.010Z,0
2017-01-21T06:00:56.029Z,0
2017-01-21T06:01:56.047Z,0
2017-01-21T06:03:10.981Z,0
2017-01-21T06:03:56.079Z,0
2017-01-21T06:04:56.097Z,0
2017-01-21T06:05:56.112Z,0
2017-01-21T06:06:56.123Z,0
2017-01-21T06:08:11.061Z,0
2017-01-21T06:09:11.078Z,0
2017-01-21T06:09:56.189Z,0
2017-01-21T06:11:56.215Z,0
2017-01-21T06:13:56.247Z,0
2017-01-21T06:14:56.256Z,0
2017-01-21T06:15:56.315Z,0
2017-01-21T06:16:56.289Z,0
2017-01-21T06:17:56.307Z,0
2017-01-21T06:18:56.324Z,0
2017-01-21T06:20:11.257Z,0
2017-01-21T06:21:11.273Z,0
2017-01-21T06:21:56.374Z,0
2017-01-21T06:22:56.388Z,0
2017-01-21T06:24:26.240Z,0
2017-01-21T06:24:56.421Z,0
2017-01-21T06:25:56.436Z,0
2017-01-21T06:26:56.457Z,0
2017-01-21T06:27:56.471Z,0
2017-01-21T06:30:11.426Z,0
2017-01-21T06:30:56.520Z,0
2017-01-21T06:31:56.535Z,0
2017-01-21T06:32:56.551Z,0
2017-01-21T06:33:56.594Z,0
2017-01-21T06:34:56.585Z,0
2017-01-21T06:35:56.603Z,0
2017-01-21T06:36:56.619Z,0
2017-01-21T06:37:56.650Z,0
2017-01-21T06:38:56.952Z,0
2017-01-21T06:40:11.586Z,0
2017-01-21T06:41:11.600Z,0
2017-01-21T06:41:56.705Z,0
2017-01-21T06:46:56.810Z,0
2017-01-21T06:47:56.830Z,0
2017-01-21T06:48:56.814Z,0
2017-01-21T06:49:56.830Z,0
2017-01-21T06:50:56.845Z,0
2017-01-21T06:52:11.781Z,0
2017-01-21T06:52:56.875Z,0
2017-01-21T06:53:56.895Z,0
2017-01-21T06:54:56.913Z,0
2017-01-21T06:55:56.944Z,0
2017-01-21T06:56:56.945Z,0
2017-01-21T06:57:56.958Z,0
2017-01-21T06:58:56.977Z,0
2017-01-21T07:00:57.014Z,0
2017-01-21T07:02:11.946Z,0
2017-01-21T07:02:57.042Z,0
2017-01-21T07:03:57.054Z,0
2017-01-21T07:05:11.996Z,0
2017-01-21T07:05:57.089Z,0
2017-01-21T07:06:57.107Z,0
2017-01-21T07:08:12.044Z,0
2017-01-21T07:08:57.163Z,0
2017-01-21T07:09:57.159Z,0
2017-01-21T07:11:27.010Z,0
2017-01-21T07:11:57.193Z,0
2017-01-21T07:12:57.207Z,0
2017-01-21T07:13:57.224Z,0
2017-01-21T07:14:57.244Z,0
2017-01-21T07:15:57.254Z,0
2017-01-21T07:16:57.270Z,0
2017-01-21T07:18:12.208Z,0
2017-01-21T07:19:57.716Z,0
2017-01-21T07:20:57.337Z,0
2017-01-21T07:22:57.374Z,0
2017-01-21T07:23:57.383Z,0
2017-01-21T07:24:57.405Z,0
2017-01-21T07:25:57.417Z,0
2017-01-21T07:26:57.435Z,0
2017-01-21T07:27:57.448Z,0
2017-01-21T07:29:12.384Z,0
2017-01-21T07:29:57.483Z,0
2017-01-21T07:31:57.519Z,0
2017-01-21T07:33:12.453Z,0
2017-01-21T07:33:57.553Z,0
2017-01-21T07:34:57.566Z,5
2017-01-21T07:35:57.585Z,5
2017-01-21T07:36:57.598Z,5
2017-01-21T07:37:57.639Z,5
2017-01-21T07:38:57.637Z,5
2017-01-21T07:39:57.646Z,5
2017-01-21T07:40:57.667Z,5
2017-01-21T07:42:57.699Z,5
2017-01-21T07:44:12.632Z,5
2017-01-21T07:44:57.754Z,5
2017-01-21T07:45:57.750Z,5
2017-01-21T07:46:57.768Z,5
2017-01-21T07:47:57.781Z,5
2017-01-21T07:48:57.797Z,5
2017-01-21T07:49:57.814Z,5
2017-01-21T07:50:57.828Z,5
2017-01-21T07:51:57.845Z,5
2017-01-21T07:52:57.862Z,5
2017-01-21T07:53:57.880Z,5
2017-01-21T07:54:57.905Z,5
2017-01-21T07:55:57.915Z,5
2017-01-21T07:56:57.928Z,5
2017-01-21T07:57:57.944Z,5
2017-01-21T07:58:57.964Z,5
2017-01-21T08:00:12.896Z,5
2017-01-21T08:00:57.998Z,10
2017-01-21T08:02:12.925Z,10
2017-01-21T08:03:58.041Z,10
2017-01-21T08:05:12.976Z,10
2017-01-21T08:05:58.074Z,10
2017-01-21T08:06:58.090Z,10
2017-01-21T08:07:58.111Z,10
2017-01-21T08:08:58.124Z,10
2017-01-21T08:10:13.059Z,10
2017-01-21T08:10:58.154Z,10
2017-01-21T08:13:13.107Z,10
2017-01-21T08:13:58.209Z,10
2017-01-21T08:14:58.222Z,10
2017-01-21T08:16:13.159Z,10
2017-01-21T08:16:58.255Z,10
2017-01-21T08:17:58.274Z,10
2017-01-21T08:18:58.285Z,15
2017-01-21T08:21:13.237Z,15
2017-01-21T08:21:58.343Z,15
2017-01-21T08:22:58.353Z,15
2017-01-21T08:23:58.372Z,15
2017-01-21T08:24:58.388Z,10
2017-01-21T08:25:58.404Z,10
2017-01-21T08:26:58.431Z,10
2017-01-21T08:27:58.435Z,15
2017-01-21T08:28:58.450Z,15
2017-01-21T08:29:58.474Z,15
2017-01-21T08:30:58.487Z,15
2017-01-21T08:32:13.418Z,20
2017-01-21T08:32:58.526Z,20
2017-01-21T08:33:58.540Z,20
2017-01-21T08:35:58.572Z,15
2017-01-21T08:37:13.502Z,15
2017-01-21T08:37:58.600Z,15
2017-01-21T08:38:58.618Z,15
2017-01-21T08:39:58.635Z,15
2017-01-21T08:40:58.650Z,15
2017-01-21T08:41:58.669Z,15
2017-01-21T08:42:58.685Z,15
2017-01-21T08:43:58.708Z,15
2017-01-21T08:44:58.722Z,20
2017-01-21T08:45:58.733Z,20
2017-01-21T08:46:58.754Z,20
2017-01-21T08:49:58.809Z,20
2017-01-21T08:50:58.817Z,20
2017-01-21T08:51:58.833Z,20
2017-01-21T08:53:13.772Z,20
2017-01-21T08:53:58.869Z,20
2017-01-21T08:54:58.884Z,20
2017-01-21T08:55:58.902Z,20
2017-01-21T08:56:58.938Z,20
2017-01-21T08:57:58.940Z,20
2017-01-21T08:58:58.955Z,20
2017-01-21T08:59:58.964Z,20
2017-01-21T09:00:58.981Z,20
2017-01-21T09:01:59.002Z,20
2017-01-21T09:02:59.034Z,20
2017-01-21T09:04:13.951Z,20
2017-01-21T09:05:13.968Z,25
2017-01-21T09:05:59.071Z,25
2017-01-21T09:06:59.084Z,25
2017-01-21T09:08:14.018Z,25
2017-01-21T09:08:59.119Z,25
2017-01-21T09:09:59.136Z,20
2017-01-21T09:11:14.094Z,20
2017-01-21T09:11:59.172Z,20
2017-01-21T09:12:59.187Z,25
2017-01-21T09:14:14.122Z,25
2017-01-21T09:14:59.224Z,25
2017-01-21T09:15:59.237Z,25
2017-01-21T09:16:59.256Z,25
2017-01-21T09:17:59.267Z,25
2017-01-21T09:18:59.322Z,25
2017-01-21T09:19:59.303Z,25
2017-01-21T09:20:59.321Z,25
2017-01-21T09:21:59.337Z,25
2017-01-21T09:22:59.359Z,25
2017-01-21T09:23:59.374Z,25
2017-01-21T09:24:59.392Z,25
2017-01-21T09:26:59.424Z,25
2017-01-21T09:27:59.439Z,30
2017-01-21T09:28:59.461Z,25
2017-01-21T09:30:14.389Z,25
2017-01-21T09:31:14.405Z,25
2017-01-21T09:31:59.507Z,25
2017-01-21T09:32:59.528Z,25
2017-01-21T09:33:59.538Z,25
2017-01-21T09:34:59.558Z,25
2017-01-21T09:36:14.491Z,25
2017-01-21T09:36:59.974Z,20
2017-01-21T09:37:59.607Z,25
2017-01-21T09:39:14.537Z,25
2017-01-21T09:40:14.560Z,25
2017-01-21T09:40:59.653Z,25
2017-01-21T09:41:59.712Z,25
2017-01-21T09:42:59.689Z,25
2017-01-21T09:43:59.704Z,25
2017-01-21T09:44:59.724Z,25
2017-01-21T09:45:59.748Z,25
2017-01-21T09:46:59.757Z,30
2017-01-21T09:48:14.694Z,30
2017-01-21T09:49:14.712Z,30
2017-01-21T09:50:14.729Z,30
2017-01-21T09:51:14.750Z,30
2017-01-21T09:51:59.902Z,30
2017-01-21T09:53:59.874Z,30
2017-01-21T09:54:59.890Z,30
2017-01-21T09:56:14.827Z,30
2017-01-21T09:56:59.926Z,30
2017-01-21T09:57:59.938Z,30
2017-01-21T09:58:59.962Z,30
2017-01-21T09:59:59.981Z,30
2017-01-21T10:00:59.996Z,35
2017-01-21T10:02:00.011Z,30
2017-01-21T10:03:00.029Z,30
2017-01-21T10:04:00.046Z,30
2017-01-21T10:05:14.984Z,30
2017-01-21T10:06:14.997Z,30
2017-01-21T10:07:00.483Z,30
2017-01-21T10:08:15.031Z,35
2017-01-21T10:09:00.132Z,35
2017-01-21T10:10:00.150Z,35
2017-01-21T10:11:00.192Z,35
2017-01-21T10:12:15.101Z,35
2017-01-21T10:13:00.195Z,35
2017-01-21T10:14:00.218Z,35
2017-01-21T10:15:00.230Z,35
2017-01-21T10:16:15.170Z,35
2017-01-21T10:17:00.265Z,35
2017-01-21T10:18:15.207Z,35
2017-01-21T10:19:00.306Z,35
2017-01-21T10:20:00.315Z,35
2017-01-21T10:21:00.332Z,35
2017-01-21T10:22:00.353Z,35
2017-01-21T10:23:00.367Z,35
2017-01-21T10:24:00.389Z,35
2017-01-21T10:25:15.321Z,35
2017-01-21T10:26:00.426Z,35
2017-01-21T10:27:00.447Z,35
2017-01-21T10:28:15.763Z,35
2017-01-21T10:29:00.470Z,35
2017-01-21T10:30:00.493Z,35
2017-01-21T10:31:00.511Z,35
2017-01-21T10:32:00.522Z,35
2017-01-21T10:33:00.544Z,35
2017-01-21T10:34:00.559Z,35
2017-01-21T10:35:00.576Z,40
2017-01-21T10:36:00.600Z,40
2017-01-21T10:37:00.636Z,40
2017-01-21T10:38:00.633Z,40
2017-01-21T10:39:00.653Z,40
2017-01-21T10:40:15.580Z,35
2017-01-21T10:41:00.681Z,35
2017-01-21T10:42:00.697Z,35
2017-01-21T10:43:15.637Z,35
2017-01-21T10:44:00.734Z,35
2017-01-21T10:45:00.750Z,35
2017-01-21T10:46:00.774Z,35
2017-01-21T10:47:00.783Z,35
2017-01-21T10:48:00.806Z,35
2017-01-21T10:49:00.826Z,35
2017-01-21T10:50:00.842Z,35
2017-01-21T10:51:00.859Z,35
2017-01-21T10:52:00.900Z,35
2017-01-21T10:53:00.895Z,35
2017-01-21T10:54:15.827Z,35
2017-01-21T10:55:00.931Z,35
2017-01-21T10:56:15.859Z,40
2017-01-21T10:57:00.962Z,40
2017-01-21T10:58:00.979Z,40
2017-01-21T10:59:01.044Z,40
2017-01-21T11:00:01.017Z,40
2017-01-21T11:01:01.031Z,40
2017-01-21T11:02:01.047Z,40
2017-01-21T11:03:01.062Z,40
2017-01-21T11:04:01.082Z,35
2017-01-21T11:05:16.019Z,35
2017-01-21T11:06:16.037Z,35
2017-01-21T11:07:01.137Z,35
2017-01-21T11:08:01.155Z,35
2017-01-21T11:09:16.090Z,40
2017-01-21T11:10:01.191Z,40
2017-01-21T11:11:16.123Z,40
2017-01-21T11:12:16.141Z,40
2017-01-21T11:14:16.574Z,40
2017-01-21T11:15:16.198Z,40
2017-01-21T11:16:16.608Z,40
2017-01-21T11:17:01.317Z,40
2017-01-21T11:18:01.332Z,40
2017-01-21T11:19:01.348Z,45
2017-01-21T11:20:01.418Z,45
2017-01-21T11:21:01.388Z,45
2017-01-21T11:22:16.707Z,45
2017-01-21T11:23:16.340Z,45
2017-01-21T11:24:01.447Z,45
2017-01-21T11:25:01.468Z,45
2017-01-21T11:26:01.475Z,45
2017-01-21T11:27:01.496Z,45
2017-01-21T11:28:01.513Z,45
2017-01-21T11:29:01.525Z,45
2017-01-21T11:30:16.472Z,50
2017-01-21T11:31:16.481Z,50
2017-01-21T11:32:16.885Z,50
2017-01-21T11:33:01.621Z,45
2017-01-21T11:34:16.924Z,45
2017-01-21T11:35:01.630Z,45
2017-01-21T11:36:01.651Z,45
2017-01-21T11:37:01.666Z,45
2017-01-21T11:38:01.686Z,45
2017-01-21T11:39:01.702Z,45
2017-01-21T11:40:16.641Z,45
2017-01-21T11:41:01.739Z,45
2017-01-21T11:42:01.759Z,45
2017-01-21T11:43:01.801Z,45
2017-01-21T11:45:16.724Z,45
2017-01-21T11:46:02.266Z,45
2017-01-21T11:48:01.863Z,45
2017-01-21T11:50:16.820Z,45
2017-01-21T11:51:01.916Z,45
2017-01-21T11:52:16.853Z,45
2017-01-21T11:53:01.953Z,45
2017-01-21T11:54:01.990Z,45
2017-01-21T11:55:01.987Z,45
2017-01-21T11:56:02.013Z,40
2017-01-21T11:57:16.943Z,40
2017-01-21T11:58:02.043Z,40
2017-01-21T11:59:16.975Z,40
2017-01-21T12:00:02.487Z,40
2017-01-21T12:01:02.091Z,40
2017-01-21T12:03:17.052Z,40
2017-01-21T12:04:17.091Z,40
2017-01-21T12:05:02.165Z,40
2017-01-21T12:06:02.192Z,35
2017-01-21T12:07:17.121Z,40
2017-01-21T12:08:17.137Z,40
2017-01-21T12:09:02.233Z,40
2017-01-21T12:10:02.260Z,40
2017-01-21T12:11:02.274Z,40
2017-01-21T12:12:02.286Z,40
2017-01-21T12:13:02.331Z,40
2017-01-21T12:14:02.325Z,40
2017-01-21T12:15:17.564Z,35
2017-01-21T12:16:02.383Z,35
2017-01-21T12:17:02.381Z,35
2017-01-21T12:18:17.317Z,35
2017-01-21T12:19:02.416Z,35
2017-01-21T12:20:02.433Z,35
2017-01-21T12:21:02.456Z,35
2017-01-21T12:22:02.478Z,35
2017-01-21T12:23:02.487Z,35
2017-01-21T12:24:02.504Z,35
2017-01-21T12:25:02.829Z,35
2017-01-21T12:26:17.462Z,35
2017-01-21T12:27:02.579Z,35
2017-01-21T12:28:17.492Z,35
2017-01-21T12:29:02.593Z,35
2017-01-21T12:30:17.528Z,35
2017-01-21T12:31:17.545Z,35
2017-01-21T12:32:02.650Z,35
2017-01-21T12:33:02.667Z,35
2017-01-21T12:34:02.685Z,35
2017-01-21T12:36:02.721Z,35
2017-01-21T12:37:02.739Z,35
2017-01-21T12:38:02.782Z,30
2017-01-21T12:39:02.773Z,30
2017-01-21T12:40:02.793Z,30
2017-01-21T12:41:02.809Z,30
2017-01-21T12:42:02.826Z,30
2017-01-21T12:43:02.848Z,30
2017-01-21T12:44:02.865Z,30
2017-01-21T12:46:17.814Z,30
2017-01-21T12:47:03.305Z,30
2017-01-21T12:49:02.952Z,30
2017-01-21T12:50:17.886Z,30
2017-01-21T12:51:02.983Z,30
2017-01-21T12:52:03.006Z,30
2017-01-21T12:53:03.022Z,30
2017-01-21T12:54:03.038Z,30
2017-01-21T12:55:03.059Z,30
2017-01-21T12:56:03.079Z,30
2017-01-21T12:57:03.097Z,30
2017-01-21T12:58:18.031Z,30
2017-01-21T12:59:03.130Z,30
2017-01-21T13:00:03.155Z,30
2017-01-21T13:01:03.162Z,30
2017-01-21T13:02:03.184Z,30
2017-01-21T13:03:03.503Z,30
2017-01-21T13:04:18.135Z,30
2017-01-21T13:05:03.240Z,30
2017-01-21T13:06:18.175Z,30
2017-01-21T13:07:03.277Z,30
2017-01-21T13:08:03.290Z,30
2017-01-21T13:09:03.309Z,30
2017-01-21T13:10:03.330Z,30
2017-01-21T13:11:03.345Z,30
2017-01-21T13:12:03.362Z,25
2017-01-21T13:13:18.304Z,25
2017-01-21T13:14:03.400Z,25
2017-01-21T13:15:18.434Z,25
2017-01-21T13:16:03.432Z,25
2017-01-21T13:17:18.370Z,25
2017-01-21T13:18:03.857Z,25
2017-01-21T13:19:03.488Z,25
2017-01-21T13:21:03.524Z,25
2017-01-21T13:22:18.457Z,25
2017-01-21T13:23:03.566Z,25
2017-01-21T13:24:03.579Z,25
2017-01-21T13:26:03.620Z,25
2017-01-21T13:27:03.628Z,25
2017-01-21T13:28:03.657Z,20
2017-01-21T13:29:03.664Z,20
2017-01-21T13:30:03.680Z,20
2017-01-21T13:31:18.619Z,20
2017-01-21T13:32:03.724Z,20
2017-01-21T13:33:03.735Z,20
2017-01-21T13:34:04.151Z,20
2017-01-21T13:35:03.776Z,20
2017-01-21T13:36:03.794Z,20
2017-01-21T13:37:03.808Z,20
2017-01-21T13:38:18.749Z,20
2017-01-21T13:39:03.843Z,20
2017-01-21T13:40:03.862Z,20
2017-01-21T13:41:03.878Z,20
2017-01-21T13:42:03.899Z,20
2017-01-21T13:43:03.915Z,20
2017-01-21T13:44:03.931Z,20
2017-01-21T13:45:18.864Z,20
2017-01-21T13:46:18.883Z,20
2017-01-21T13:47:03.985Z,20
2017-01-21T13:48:04.000Z,15
2017-01-21T13:49:04.042Z,15
2017-01-21T13:50:04.039Z,15
2017-01-21T13:51:18.972Z,15
2017-01-21T13:52:04.075Z,15
2017-01-21T13:53:19.012Z,15
2017-01-21T13:54:04.111Z,15
2017-01-21T13:55:04.128Z,15
2017-01-21T13:56:04.531Z,15
2017-01-21T13:57:19.082Z,15
2017-01-21T13:58:04.179Z,15
2017-01-21T13:59:19.115Z,15
2017-01-21T14:00:04.219Z,15
2017-01-21T14:01:19.154Z,15
2017-01-21T14:04:04.324Z,15
2017-01-21T14:05:19.221Z,15
2017-01-21T14:06:19.236Z,15
2017-01-21T14:08:04.359Z,15
2017-01-21T14:09:04.376Z,15
2017-01-21T14:10:04.392Z,15
2017-01-21T14:11:04.408Z,15
2017-01-21T14:12:04.457Z,15
2017-01-21T14:13:04.446Z,15
2017-01-21T14:14:04.460Z,15
2017-01-21T14:15:19.400Z,15
2017-01-21T14:16:04.506Z,15
2017-01-21T14:17:04.513Z,15
2017-01-21T14:18:04.531Z,10
2017-01-21T14:19:34.385Z,10
2017-01-21T14:20:19.483Z,10
2017-01-21T14:21:04.975Z,10
2017-01-21T14:22:04.605Z,10
2017-01-21T14:24:04.638Z,10
2017-01-21T14:25:19.571Z,10
2017-01-21T14:26:19.593Z,10
2017-01-21T14:28:04.706Z,10
2017-01-21T14:29:04.745Z,10
2017-01-21T14:30:04.743Z,10
2017-01-21T14:31:04.760Z,10
2017-01-21T14:32:04.777Z,10
2017-01-21T14:33:19.716Z,10
2017-01-21T14:34:04.811Z,10
2017-01-21T14:35:04.828Z,10
2017-01-21T14:36:05.241Z,10
2017-01-21T14:37:04.865Z,10
2017-01-21T14:38:04.887Z,10
2017-01-21T14:39:04.899Z,10
2017-01-21T14:40:04.919Z,10
2017-01-21T14:41:34.823Z,10
2017-01-21T14:42:04.953Z,10
2017-01-21T14:43:04.969Z,10
2017-01-21T14:44:04.987Z,10
2017-01-21T14:45:05.007Z,10
2017-01-21T14:46:05.024Z,5
2017-01-21T14:47:05.041Z,5
2017-01-21T14:48:05.060Z,5
2017-01-21T14:49:05.075Z,5
2017-01-21T14:50:20.013Z,5
2017-01-21T14:51:34.946Z,5
2017-01-21T14:52:05.132Z,5
2017-01-21T14:53:05.171Z,5
2017-01-21T14:54:05.162Z,5
2017-01-21T14:55:05.187Z,5
2017-01-21T14:56:05.200Z,5
2017-01-21T14:57:20.131Z,5
2017-01-21T14:58:05.254Z,5
2017-01-21T14:59:05.251Z,5
2017-01-21T15:00:20.190Z,5
2017-01-21T15:01:05.286Z,5
2017-01-21T15:02:05.300Z,5
2017-01-21T15:03:05.317Z,5
2017-01-21T15:04:05.337Z,5
2017-01-21T15:05:05.352Z,5
2017-01-21T15:06:05.370Z,5
2017-01-21T15:07:20.307Z,0
2017-01-21T15:08:05.427Z,0
2017-01-21T15:09:05.421Z,0
2017-01-21T15:11:05.459Z,0
2017-01-21T15:12:05.472Z,0
2017-01-21T15:13:20.414Z,0
2017-01-21T15:14:05.903Z,0
2017-01-21T15:15:05.528Z,0
2017-01-21T15:16:05.547Z,0
2017-01-21T15:17:05.564Z,0
2017-01-21T15:18:05.580Z,0
2017-01-21T15:19:20.516Z,0
2017-01-21T15:20:05.617Z,0
2017-01-21T15:21:05.633Z,0
2017-01-21T15:22:05.647Z,0
2017-01-21T15:23:05.668Z,0
2017-01-21T15:24:05.696Z,0
2017-01-21T15:25:35.536Z,0
2017-01-21T15:26:20.636Z,0
2017-01-21T15:27:05.735Z,0
2017-01-21T15:28:20.669Z,0
2017-01-21T15:29:05.771Z,0
2017-01-21T15:30:05.784Z,0
2017-01-21T15:31:05.806Z,0
2017-01-21T15:32:05.825Z,0
2017-01-21T15:33:20.758Z,0
2017-01-21T15:34:05.855Z,0